Knife Lake, Minnesota
Current Conditions -  °F | °C
As of 5:46 PM on Saturday 22 Nov 2014 (Local Time) from K04W Reporting Station
Haze Haze  
Wind Chill: 27°   Ceiling: 400
Heat Index: 34°   Visibility: 5mi
Dew Point: 32°   Wind: 8mph
Humidity: 93%   Direction: 150°SSE
Pressure: 29.62"   Gusts: NA
Location:  45.9652°N, 93.2874°W
Report Text: K04W 222346Z AUTO 15007KT 5SM BR OVC004 01/00 A2962 RMK AO2
Loading
Personal Weather Stations






























Interactive Weather Map New forecast layout! Learn more

10-Day Weather Forecast

Advertisements
Track Severe Weather on mobile